Bondville, Illinois
Current Conditions -  °F | °C
As of 6:53 PM on Thursday 18 Dec 2014 (Local Time) from KCMI Reporting Station
Overcast Overcast  
Wind Chill: 23°   Ceiling: 1800
Heat Index: 28°   Visibility: 9mi
Dew Point: 23°   Wind: 5mph
Humidity: 81%   Direction: 320°NW
Pressure: 30.26"   Gusts: NA
Location:  40.11°N, 88.37°W
Report Text: KCMI 190053Z 32004KT 9SM OVC018 M02/M05 A3026 RMK AO2 SLP257 T10221050
Loading
Personal Weather Stations






























Interactive Weather Map New forecast layout! Learn more

10-Day Weather Forecast

Advertisements
Track Severe Weather on mobile